sensor_id;sensor_type;location;lat;lon;timestamp;temperature;humidity
71754;DHT22;59593;51.716;7.016;2022-10-31T00:02:13;13.20;99.90
71754;DHT22;59593;51.716;7.016;2022-10-31T00:04:38;13.20;99.90
71754;DHT22;59593;51.716;7.016;2022-10-31T00:07:04;13.20;99.90
71754;DHT22;59593;51.716;7.016;2022-10-31T00:09:29;13.10;99.90
71754;DHT22;59593;51.716;7.016;2022-10-31T00:11:55;13.10;99.90
71754;DHT22;59593;51.716;7.016;2022-10-31T00:14:20;13.10;99.90
71754;DHT22;59593;51.716;7.016;2022-10-31T00:16:46;13.10;99.90
71754;DHT22;59593;51.716;7.016;2022-10-31T00:19:11;13.00;99.90
71754;DHT22;59593;51.716;7.016;2022-10-31T00:21:37;13.00;99.90
71754;DHT22;59593;51.716;7.016;2022-10-31T00:24:03;13.00;99.90
71754;DHT22;59593;51.716;7.016;2022-10-31T00:26:30;12.90;99.90
71754;DHT22;59593;51.716;7.016;2022-10-31T00:28:57;12.90;99.90
71754;DHT22;59593;51.716;7.016;2022-10-31T00:31:22;12.90;99.90
71754;DHT22;59593;51.716;7.016;2022-10-31T00:33:48;12.90;99.90
71754;DHT22;59593;51.716;7.016;2022-10-31T00:36:17;12.90;99.90
71754;DHT22;59593;51.716;7.016;2022-10-31T00:38:43;12.80;99.90
71754;DHT22;59593;51.716;7.016;2022-10-31T00:41:10;12.90;99.90
71754;DHT22;59593;51.716;7.016;2022-10-31T00:43:36;12.80;99.90
71754;DHT22;59593;51.716;7.016;2022-10-31T00:46:02;12.90;99.90
71754;DHT22;59593;51.716;7.016;2022-10-31T00:48:28;12.90;99.90
71754;DHT22;59593;51.716;7.016;2022-10-31T00:50:54;12.70;99.90
71754;DHT22;59593;51.716;7.016;2022-10-31T00:53:19;12.70;99.90
71754;DHT22;59593;51.716;7.016;2022-10-31T00:55:45;12.70;99.90
71754;DHT22;59593;51.716;7.016;2022-10-31T00:58:10;12.70;99.90
71754;DHT22;59593;51.716;7.016;2022-10-31T01:00:36;12.70;99.90
71754;DHT22;59593;51.716;7.016;2022-10-31T01:03:02;12.70;99.90
71754;DHT22;59593;51.716;7.016;2022-10-31T01:05:28;12.70;99.90
71754;DHT22;59593;51.716;7.016;2022-10-31T01:07:53;12.70;99.90
71754;DHT22;59593;51.716;7.016;2022-10-31T01:10:19;12.70;99.90
71754;DHT22;59593;51.716;7.016;2022-10-31T01:12:46;12.70;99.90
71754;DHT22;59593;51.716;7.016;2022-10-31T01:15:16;12.70;99.90
71754;DHT22;59593;51.716;7.016;2022-10-31T01:17:42;12.70;99.90
71754;DHT22;59593;51.716;7.016;2022-10-31T01:20:08;12.60;99.90
71754;DHT22;59593;51.716;7.016;2022-10-31T01:22:34;12.60;99.90
71754;DHT22;59593;51.716;7.016;2022-10-31T01:25:00;12.70;99.90
71754;DHT22;59593;51.716;7.016;2022-10-31T01:27:26;12.70;99.90
71754;DHT22;59593;51.716;7.016;2022-10-31T01:29:51;12.70;99.90
71754;DHT22;59593;51.716;7.016;2022-10-31T01:32:17;12.70;99.90
71754;DHT22;59593;51.716;7.016;2022-10-31T01:34:42;12.70;99.90
71754;DHT22;59593;51.716;7.016;2022-10-31T01:37:08;12.70;99.90
71754;DHT22;59593;51.716;7.016;2022-10-31T01:39:34;12.70;99.90
71754;DHT22;59593;51.716;7.016;2022-10-31T01:41:59;12.60;99.90
71754;DHT22;59593;51.716;7.016;2022-10-31T01:47:03;12.50;99.90
71754;DHT22;59593;51.716;7.016;2022-10-31T01:49:49;12.40;99.90
71754;DHT22;59593;51.716;7.016;2022-10-31T01:55:00;12.30;99.90
71754;DHT22;59593;51.716;7.016;2022-10-31T01:57:27;12.20;99.90
71754;DHT22;59593;51.716;7.016;2022-10-31T01:59:59;12.20;99.90
71754;DHT22;59593;51.716;7.016;2022-10-31T02:02:27;12.20;99.90
71754;DHT22;59593;51.716;7.016;2022-10-31T02:04:53;12.30;99.90
71754;DHT22;59593;51.716;7.016;2022-10-31T02:07:30;12.20;99.90
71754;DHT22;59593;51.716;7.016;2022-10-31T02:09:58;12.10;99.90
71754;DHT22;59593;51.716;7.016;2022-10-31T02:12:25;12.10;99.90
71754;DHT22;59593;51.716;7.016;2022-10-31T02:14:50;12.10;99.90
71754;DHT22;59593;51.716;7.016;2022-10-31T02:17:16;12.10;99.90
71754;DHT22;59593;51.716;7.016;2022-10-31T02:20:18;12.00;99.90
71754;DHT22;59593;51.716;7.016;2022-10-31T02:33:24;11.90;99.90
71754;DHT22;59593;51.716;7.016;2022-10-31T02:38:38;11.90;99.90
71754;DHT22;59593;51.716;7.016;2022-10-31T02:42:01;11.90;99.90
71754;DHT22;59593;51.716;7.016;2022-10-31T02:44:32;11.90;99.90
71754;DHT22;59593;51.716;7.016;2022-10-31T02:47:22;11.80;99.90
71754;DHT22;59593;51.716;7.016;2022-10-31T02:52:31;11.80;99.90
71754;DHT22;59593;51.716;7.016;2022-10-31T02:54:57;11.80;99.90
71754;DHT22;59593;51.716;7.016;2022-10-31T02:57:32;11.80;99.90
71754;DHT22;59593;51.716;7.016;2022-10-31T03:00:04;11.80;99.90
71754;DHT22;59593;51.716;7.016;2022-10-31T03:10:35;11.80;99.90
71754;DHT22;59593;51.716;7.016;2022-10-31T03:13:14;11.70;99.90
71754;DHT22;59593;51.716;7.016;2022-10-31T03:15:44;11.60;99.90
71754;DHT22;59593;51.716;7.016;2022-10-31T03:21:13;11.60;99.90
71754;DHT22;59593;51.716;7.016;2022-10-31T03:23:36;11.60;99.90
71754;DHT22;59593;51.716;7.016;2022-10-31T03:26:05;11.60;99.90
71754;DHT22;59593;51.716;7.016;2022-10-31T03:28:38;11.60;99.90
71754;DHT22;59593;51.716;7.016;2022-10-31T03:31:06;11.60;99.90
71754;DHT22;59593;51.716;7.016;2022-10-31T03:33:35;11.50;99.90
71754;DHT22;59593;51.716;7.016;2022-10-31T03:36:04;11.50;99.90
71754;DHT22;59593;51.716;7.016;2022-10-31T03:38:32;11.50;99.90
71754;DHT22;59593;51.716;7.016;2022-10-31T03:41:00;11.40;99.90
71754;DHT22;59593;51.716;7.016;2022-10-31T03:43:32;11.50;99.90
71754;DHT22;59593;51.716;7.016;2022-10-31T03:45:58;11.40;99.90
71754;DHT22;59593;51.716;7.016;2022-10-31T03:48:24;11.40;99.90
71754;DHT22;59593;51.716;7.016;2022-10-31T03:51:09;11.40;99.90
71754;DHT22;59593;51.716;7.016;2022-10-31T03:53:44;11.30;99.90
71754;DHT22;59593;51.716;7.016;2022-10-31T03:56:27;11.30;99.90
71754;DHT22;59593;51.716;7.016;2022-10-31T03:59:11;11.30;99.90
71754;DHT22;59593;51.716;7.016;2022-10-31T04:01:43;11.20;99.90
71754;DHT22;59593;51.716;7.016;2022-10-31T04:04:10;11.10;99.90
71754;DHT22;59593;51.716;7.016;2022-10-31T04:06:38;11.10;99.90
71754;DHT22;59593;51.716;7.016;2022-10-31T04:09:06;11.10;99.90
71754;DHT22;59593;51.716;7.016;2022-10-31T04:11:38;11.10;99.90
71754;DHT22;59593;51.716;7.016;2022-10-31T04:14:07;11.10;99.90
71754;DHT22;59593;51.716;7.016;2022-10-31T04:16:33;11.10;99.90
71754;DHT22;59593;51.716;7.016;2022-10-31T04:18:59;11.10;99.90
71754;DHT22;59593;51.716;7.016;2022-10-31T04:21:29;11.00;99.90
71754;DHT22;59593;51.716;7.016;2022-10-31T04:23:56;11.00;99.90
71754;DHT22;59593;51.716;7.016;2022-10-31T04:26:21;11.00;99.90
71754;DHT22;59593;51.716;7.016;2022-10-31T04:28:47;11.10;99.90
71754;DHT22;59593;51.716;7.016;2022-10-31T04:31:13;11.10;99.90
71754;DHT22;59593;51.716;7.016;2022-10-31T04:33:39;11.10;99.90
71754;DHT22;59593;51.716;7.016;2022-10-31T04:36:05;11.10;99.90
71754;DHT22;59593;51.716;7.016;2022-10-31T04:38:30;11.00;99.90
71754;DHT22;59593;51.716;7.016;2022-10-31T04:40:56;11.00;99.90
71754;DHT22;59593;51.716;7.016;2022-10-31T04:43:22;11.00;99.90
71754;DHT22;59593;51.716;7.016;2022-10-31T04:45:47;11.00;99.90
71754;DHT22;59593;51.716;7.016;2022-10-31T04:48:13;11.10;99.90
71754;DHT22;59593;51.716;7.016;2022-10-31T04:50:39;11.10;99.90
71754;DHT22;59593;51.716;7.016;2022-10-31T04:53:04;11.10;99.90
71754;DHT22;59593;51.716;7.016;2022-10-31T04:55:30;11.10;99.90
71754;DHT22;59593;51.716;7.016;2022-10-31T04:57:56;11.10;99.90
71754;DHT22;59593;51.716;7.016;2022-10-31T05:00:23;11.10;99.90
71754;DHT22;59593;51.716;7.016;2022-10-31T05:02:50;11.10;99.90
71754;DHT22;59593;51.716;7.016;2022-10-31T05:05:18;11.20;99.90
71754;DHT22;59593;51.716;7.016;2022-10-31T05:07:45;11.20;99.90
71754;DHT22;59593;51.716;7.016;2022-10-31T05:10:14;11.20;99.90
71754;DHT22;59593;51.716;7.016;2022-10-31T05:12:48;11.20;99.90
71754;DHT22;59593;51.716;7.016;2022-10-31T05:15:14;11.20;99.90
71754;DHT22;59593;51.716;7.016;2022-10-31T05:17:40;11.30;99.90
71754;DHT22;59593;51.716;7.016;2022-10-31T05:20:06;11.30;99.90
71754;DHT22;59593;51.716;7.016;2022-10-31T05:22:31;11.20;99.90
71754;DHT22;59593;51.716;7.016;2022-10-31T05:24:57;11.20;99.90
71754;DHT22;59593;51.716;7.016;2022-10-31T05:27:23;11.20;99.90
71754;DHT22;59593;51.716;7.016;2022-10-31T05:29:48;11.10;99.90
71754;DHT22;59593;51.716;7.016;2022-10-31T05:32:14;11.10;99.90
71754;DHT22;59593;51.716;7.016;2022-10-31T05:34:39;11.10;99.90
71754;DHT22;59593;51.716;7.016;2022-10-31T05:37:05;11.00;99.90
71754;DHT22;59593;51.716;7.016;2022-10-31T05:39:31;10.90;99.90
71754;DHT22;59593;51.716;7.016;2022-10-31T05:41:56;10.90;99.90
71754;DHT22;59593;51.716;7.016;2022-10-31T05:44:22;10.80;99.90
71754;DHT22;59593;51.716;7.016;2022-10-31T05:46:47;10.80;99.90
71754;DHT22;59593;51.716;7.016;2022-10-31T05:49:13;10.80;99.90
71754;DHT22;59593;51.716;7.016;2022-10-31T05:51:39;10.90;99.90
71754;DHT22;59593;51.716;7.016;2022-10-31T05:54:04;10.80;99.90
71754;DHT22;59593;51.716;7.016;2022-10-31T05:56:30;10.80;99.90
71754;DHT22;59593;51.716;7.016;2022-10-31T05:58:56;10.80;99.90
71754;DHT22;59593;51.716;7.016;2022-10-31T06:01:21;10.80;99.90
71754;DHT22;59593;51.716;7.016;2022-10-31T06:03:47;10.80;99.90
71754;DHT22;59593;51.716;7.016;2022-10-31T06:06:13;10.80;99.90
71754;DHT22;59593;51.716;7.016;2022-10-31T06:08:38;10.80;99.90
71754;DHT22;59593;51.716;7.016;2022-10-31T06:11:04;10.80;99.90
71754;DHT22;59593;51.716;7.016;2022-10-31T06:13:30;10.80;99.90
71754;DHT22;59593;51.716;7.016;2022-10-31T06:15:55;10.80;99.90
71754;DHT22;59593;51.716;7.016;2022-10-31T06:18:21;10.70;99.90
71754;DHT22;59593;51.716;7.016;2022-10-31T06:20:46;10.70;99.90
71754;DHT22;59593;51.716;7.016;2022-10-31T06:23:12;10.60;99.90
71754;DHT22;59593;51.716;7.016;2022-10-31T06:25:37;10.50;99.90
71754;DHT22;59593;51.716;7.016;2022-10-31T06:28:03;10.50;99.90
71754;DHT22;59593;51.716;7.016;2022-10-31T06:30:29;10.60;99.90
71754;DHT22;59593;51.716;7.016;2022-10-31T06:33:00;10.60;99.90
71754;DHT22;59593;51.716;7.016;2022-10-31T06:35:26;10.70;99.90
71754;DHT22;59593;51.716;7.016;2022-10-31T06:37:53;10.70;99.90
71754;DHT22;59593;51.716;7.016;2022-10-31T06:40:19;10.70;99.90
71754;DHT22;59593;51.716;7.016;2022-10-31T06:42:44;10.80;99.90
71754;DHT22;59593;51.716;7.016;2022-10-31T06:45:10;10.70;99.90
71754;DHT22;59593;51.716;7.016;2022-10-31T06:47:35;10.60;99.90
71754;DHT22;59593;51.716;7.016;2022-10-31T06:50:01;10.60;99.90
71754;DHT22;59593;51.716;7.016;2022-10-31T06:52:26;10.70;99.90
71754;DHT22;59593;51.716;7.016;2022-10-31T06:54:52;10.80;99.90
71754;DHT22;59593;51.716;7.016;2022-10-31T06:57:18;10.90;99.90
71754;DHT22;59593;51.716;7.016;2022-10-31T06:59:43;11.00;99.90
71754;DHT22;59593;51.716;7.016;2022-10-31T07:02:10;11.00;99.90
71754;DHT22;59593;51.716;7.016;2022-10-31T07:04:35;11.00;99.90
71754;DHT22;59593;51.716;7.016;2022-10-31T07:07:01;11.10;99.90
71754;DHT22;59593;51.716;7.016;2022-10-31T07:09:27;11.10;99.90
71754;DHT22;59593;51.716;7.016;2022-10-31T07:11:53;11.20;99.90
71754;DHT22;59593;51.716;7.016;2022-10-31T07:14:18;11.20;99.90
71754;DHT22;59593;51.716;7.016;2022-10-31T07:16:48;11.20;99.90
71754;DHT22;59593;51.716;7.016;2022-10-31T07:19:14;11.20;99.90
71754;DHT22;59593;51.716;7.016;2022-10-31T07:21:40;11.30;99.90
71754;DHT22;59593;51.716;7.016;2022-10-31T07:24:05;11.40;99.90
71754;DHT22;59593;51.716;7.016;2022-10-31T07:26:31;11.50;99.90
71754;DHT22;59593;51.716;7.016;2022-10-31T07:28:56;11.60;99.90
71754;DHT22;59593;51.716;7.016;2022-10-31T07:31:22;11.60;99.90
71754;DHT22;59593;51.716;7.016;2022-10-31T07:33:49;11.70;99.90
71754;DHT22;59593;51.716;7.016;2022-10-31T07:36:15;11.70;99.90
71754;DHT22;59593;51.716;7.016;2022-10-31T07:38:41;11.70;99.90
71754;DHT22;59593;51.716;7.016;2022-10-31T07:41:06;11.70;99.90
71754;DHT22;59593;51.716;7.016;2022-10-31T07:43:32;11.70;99.90
71754;DHT22;59593;51.716;7.016;2022-10-31T07:45:57;11.80;99.90
71754;DHT22;59593;51.716;7.016;2022-10-31T07:48:23;11.80;99.90
71754;DHT22;59593;51.716;7.016;2022-10-31T07:50:48;11.90;99.90
71754;DHT22;59593;51.716;7.016;2022-10-31T07:53:14;12.00;99.90
71754;DHT22;59593;51.716;7.016;2022-10-31T07:55:40;12.00;99.90
71754;DHT22;59593;51.716;7.016;2022-10-31T07:58:10;12.00;99.90
71754;DHT22;59593;51.716;7.016;2022-10-31T08:00:37;12.10;99.90
71754;DHT22;59593;51.716;7.016;2022-10-31T08:03:04;12.20;99.90
71754;DHT22;59593;51.716;7.016;2022-10-31T08:05:31;12.20;99.90
71754;DHT22;59593;51.716;7.016;2022-10-31T08:07:57;12.30;99.90
71754;DHT22;59593;51.716;7.016;2022-10-31T08:10:24;12.40;99.90
71754;DHT22;59593;51.716;7.016;2022-10-31T08:13:01;12.40;99.90
71754;DHT22;59593;51.716;7.016;2022-10-31T08:15:27;12.40;99.90
71754;DHT22;59593;51.716;7.016;2022-10-31T08:17:53;12.50;99.90
71754;DHT22;59593;51.716;7.016;2022-10-31T08:20:19;12.50;99.90
71754;DHT22;59593;51.716;7.016;2022-10-31T08:23:02;12.40;99.90
71754;DHT22;59593;51.716;7.016;2022-10-31T08:25:30;12.40;99.90
71754;DHT22;59593;51.716;7.016;2022-10-31T08:27:56;12.40;99.90
71754;DHT22;59593;51.716;7.016;2022-10-31T08:30:24;12.50;99.90
71754;DHT22;59593;51.716;7.016;2022-10-31T08:33:05;12.60;99.90
71754;DHT22;59593;51.716;7.016;2022-10-31T08:35:32;12.70;99.90
71754;DHT22;59593;51.716;7.016;2022-10-31T08:37:58;12.80;99.90
71754;DHT22;59593;51.716;7.016;2022-10-31T08:40:24;12.90;99.90
71754;DHT22;59593;51.716;7.016;2022-10-31T08:43:17;13.00;99.90
71754;DHT22;59593;51.716;7.016;2022-10-31T08:45:44;13.20;99.90
71754;DHT22;59593;51.716;7.016;2022-10-31T08:48:12;13.30;99.90
71754;DHT22;59593;51.716;7.016;2022-10-31T08:50:38;13.30;99.90
71754;DHT22;59593;51.716;7.016;2022-10-31T08:53:18;13.30;99.90
71754;DHT22;59593;51.716;7.016;2022-10-31T08:55:45;13.40;99.90
71754;DHT22;59593;51.716;7.016;2022-10-31T08:58:16;13.50;99.90
71754;DHT22;59593;51.716;7.016;2022-10-31T09:00:43;13.60;99.90
71754;DHT22;59593;51.716;7.016;2022-10-31T09:03:23;13.70;99.90
71754;DHT22;59593;51.716;7.016;2022-10-31T09:05:50;13.70;99.90
71754;DHT22;59593;51.716;7.016;2022-10-31T09:08:16;13.80;99.90
71754;DHT22;59593;51.716;7.016;2022-10-31T09:10:43;13.80;99.90
71754;DHT22;59593;51.716;7.016;2022-10-31T09:13:17;13.90;99.90
71754;DHT22;59593;51.716;7.016;2022-10-31T09:15:45;13.90;99.90
71754;DHT22;59593;51.716;7.016;2022-10-31T09:18:12;14.00;99.90
71754;DHT22;59593;51.716;7.016;2022-10-31T09:20:42;14.00;99.90
71754;DHT22;59593;51.716;7.016;2022-10-31T09:23:19;14.20;99.90
71754;DHT22;59593;51.716;7.016;2022-10-31T09:25:46;14.30;99.90
71754;DHT22;59593;51.716;7.016;2022-10-31T09:28:15;14.30;99.90
71754;DHT22;59593;51.716;7.016;2022-10-31T09:30:41;14.40;99.90
71754;DHT22;59593;51.716;7.016;2022-10-31T09:33:11;14.50;99.90
71754;DHT22;59593;51.716;7.016;2022-10-31T09:35:37;14.70;99.90
71754;DHT22;59593;51.716;7.016;2022-10-31T09:38:05;14.80;99.90
71754;DHT22;59593;51.716;7.016;2022-10-31T09:40:35;14.80;99.90
71754;DHT22;59593;51.716;7.016;2022-10-31T09:49:24;15.20;99.90
71754;DHT22;59593;51.716;7.016;2022-10-31T09:52:20;15.40;99.90
71754;DHT22;59593;51.716;7.016;2022-10-31T09:57:28;15.60;99.90
71754;DHT22;59593;51.716;7.016;2022-10-31T09:59:55;15.60;99.90
71754;DHT22;59593;51.716;7.016;2022-10-31T10:02:33;15.60;99.90
71754;DHT22;59593;51.716;7.016;2022-10-31T10:05:10;15.60;99.90
71754;DHT22;59593;51.716;7.016;2022-10-31T10:08:03;15.70;99.90
71754;DHT22;59593;51.716;7.016;2022-10-31T10:19:14;15.50;99.90
71754;DHT22;59593;51.716;7.016;2022-10-31T10:27:14;15.60;99.90
71754;DHT22;59593;51.716;7.016;2022-10-31T10:30:04;15.60;99.90
71754;DHT22;59593;51.716;7.016;2022-10-31T10:32:47;15.70;99.90
71754;DHT22;59593;51.716;7.016;2022-10-31T10:35:26;15.90;99.90
71754;DHT22;59593;51.716;7.016;2022-10-31T10:38:02;16.20;99.90
71754;DHT22;59593;51.716;7.016;2022-10-31T10:40:29;16.90;99.90
71754;DHT22;59593;51.716;7.016;2022-10-31T10:49:02;18.80;99.90
71754;DHT22;59593;51.716;7.016;2022-10-31T10:52:27;19.10;99.90
71754;DHT22;59593;51.716;7.016;2022-10-31T10:55:08;19.10;99.90
71754;DHT22;59593;51.716;7.016;2022-10-31T10:58:08;19.20;99.90
71754;DHT22;59593;51.716;7.016;2022-10-31T11:03:05;18.00;99.90
71754;DHT22;59593;51.716;7.016;2022-10-31T11:08:06;17.80;99.90
71754;DHT22;59593;51.716;7.016;2022-10-31T11:10:32;17.60;99.90
71754;DHT22;59593;51.716;7.016;2022-10-31T11:19:40;17.60;99.90
71754;DHT22;59593;51.716;7.016;2022-10-31T11:22:14;17.50;99.90
71754;DHT22;59593;51.716;7.016;2022-10-31T11:24:42;17.70;99.90
71754;DHT22;59593;51.716;7.016;2022-10-31T11:27:21;17.60;99.90
71754;DHT22;59593;51.716;7.016;2022-10-31T11:29:47;17.80;99.90
71754;DHT22;59593;51.716;7.016;2022-10-31T11:32:22;18.30;99.90
71754;DHT22;59593;51.716;7.016;2022-10-31T11:35:01;18.60;99.90
71754;DHT22;59593;51.716;7.016;2022-10-31T11:37:30;18.50;99.90
71754;DHT22;59593;51.716;7.016;2022-10-31T11:40:04;18.30;99.90
71754;DHT22;59593;51.716;7.016;2022-10-31T11:42:39;18.40;99.90
71754;DHT22;59593;51.716;7.016;2022-10-31T11:47:50;18.30;99.90
71754;DHT22;59593;51.716;7.016;2022-10-31T11:50:47;18.30;99.90
71754;DHT22;59593;51.716;7.016;2022-10-31T11:53:19;18.10;99.90
71754;DHT22;59593;51.716;7.016;2022-10-31T11:56:03;17.70;99.90
71754;DHT22;59593;51.716;7.016;2022-10-31T11:58:32;17.70;99.90
71754;DHT22;59593;51.716;7.016;2022-10-31T12:00:57;17.70;99.90
71754;DHT22;59593;51.716;7.016;2022-10-31T12:06:08;17.60;99.90
71754;DHT22;59593;51.716;7.016;2022-10-31T12:08:39;17.80;99.90
71754;DHT22;59593;51.716;7.016;2022-10-31T12:11:27;17.70;99.90
71754;DHT22;59593;51.716;7.016;2022-10-31T12:16:55;17.40;99.90
71754;DHT22;59593;51.716;7.016;2022-10-31T12:22:18;17.40;99.90
71754;DHT22;59593;51.716;7.016;2022-10-31T12:35:44;18.40;99.90
71754;DHT22;59593;51.716;7.016;2022-10-31T12:38:40;18.40;99.90
71754;DHT22;59593;51.716;7.016;2022-10-31T12:41:20;18.20;99.90
71754;DHT22;59593;51.716;7.016;2022-10-31T12:43:56;18.10;99.90
71754;DHT22;59593;51.716;7.016;2022-10-31T12:49:13;18.10;99.90
71754;DHT22;59593;51.716;7.016;2022-10-31T12:52:10;17.90;99.90
71754;DHT22;59593;51.716;7.016;2022-10-31T12:54:45;18.00;99.90
71754;DHT22;59593;51.716;7.016;2022-10-31T12:59:47;17.70;99.90
71754;DHT22;59593;51.716;7.016;2022-10-31T13:04:53;17.90;99.90
71754;DHT22;59593;51.716;7.016;2022-10-31T13:07:44;17.70;99.90
71754;DHT22;59593;51.716;7.016;2022-10-31T13:13:38;18.20;99.90
71754;DHT22;59593;51.716;7.016;2022-10-31T13:22:17;18.80;99.90
71754;DHT22;59593;51.716;7.016;2022-10-31T13:30:16;18.80;99.90
71754;DHT22;59593;51.716;7.016;2022-10-31T13:32:47;18.90;99.90
71754;DHT22;59593;51.716;7.016;2022-10-31T13:38:25;18.80;99.90
71754;DHT22;59593;51.716;7.016;2022-10-31T13:41:06;18.40;99.90
71754;DHT22;59593;51.716;7.016;2022-10-31T13:44:02;18.30;99.90
71754;DHT22;59593;51.716;7.016;2022-10-31T13:49:00;18.10;99.90
71754;DHT22;59593;51.716;7.016;2022-10-31T13:51:32;18.30;99.90
71754;DHT22;59593;51.716;7.016;2022-10-31T13:54:19;18.10;99.90
71754;DHT22;59593;51.716;7.016;2022-10-31T13:56:49;18.10;99.90
71754;DHT22;59593;51.716;7.016;2022-10-31T13:59:19;18.10;99.90
71754;DHT22;59593;51.716;7.016;2022-10-31T14:01:56;18.20;99.90
71754;DHT22;59593;51.716;7.016;2022-10-31T14:04:24;18.50;99.90
71754;DHT22;59593;51.716;7.016;2022-10-31T14:07:10;18.70;99.90
71754;DHT22;59593;51.716;7.016;2022-10-31T14:09:39;18.60;99.90
71754;DHT22;59593;51.716;7.016;2022-10-31T14:12:13;18.60;99.90
71754;DHT22;59593;51.716;7.016;2022-10-31T14:14:52;18.80;99.90
71754;DHT22;59593;51.716;7.016;2022-10-31T14:17:25;18.80;99.90
71754;DHT22;59593;51.716;7.016;2022-10-31T14:22:37;18.60;99.90
71754;DHT22;59593;51.716;7.016;2022-10-31T14:25:24;18.30;99.90
71754;DHT22;59593;51.716;7.016;2022-10-31T14:27:50;18.10;99.90
71754;DHT22;59593;51.716;7.016;2022-10-31T14:30:20;18.00;99.90
71754;DHT22;59593;51.716;7.016;2022-10-31T14:32:53;18.00;99.90
71754;DHT22;59593;51.716;7.016;2022-10-31T14:35:21;17.70;99.90
71754;DHT22;59593;51.716;7.016;2022-10-31T14:39:16;17.80;99.90
71754;DHT22;59593;51.716;7.016;2022-10-31T14:47:18;17.60;99.90
71754;DHT22;59593;51.716;7.016;2022-10-31T14:53:01;17.60;99.90
71754;DHT22;59593;51.716;7.016;2022-10-31T14:55:27;17.50;99.90
71754;DHT22;59593;51.716;7.016;2022-10-31T14:58:01;17.50;99.90
71754;DHT22;59593;51.716;7.016;2022-10-31T15:00:28;17.50;99.90
71754;DHT22;59593;51.716;7.016;2022-10-31T15:03:16;17.40;99.90
71754;DHT22;59593;51.716;7.016;2022-10-31T15:05:51;17.40;99.90
71754;DHT22;59593;51.716;7.016;2022-10-31T15:08:41;17.30;99.90
71754;DHT22;59593;51.716;7.016;2022-10-31T15:11:20;17.20;99.90
71754;DHT22;59593;51.716;7.016;2022-10-31T15:13:50;17.30;99.90
71754;DHT22;59593;51.716;7.016;2022-10-31T15:16:35;17.30;99.90
71754;DHT22;59593;51.716;7.016;2022-10-31T15:19:05;17.20;99.90
71754;DHT22;59593;51.716;7.016;2022-10-31T15:21:31;17.20;99.90
71754;DHT22;59593;51.716;7.016;2022-10-31T15:23:59;17.20;99.90
71754;DHT22;59593;51.716;7.016;2022-10-31T15:26:31;17.20;99.90
71754;DHT22;59593;51.716;7.016;2022-10-31T15:29:00;17.20;99.90
71754;DHT22;59593;51.716;7.016;2022-10-31T15:31:27;17.20;99.90
71754;DHT22;59593;51.716;7.016;2022-10-31T15:33:54;17.20;99.90
71754;DHT22;59593;51.716;7.016;2022-10-31T15:36:22;17.10;99.90
71754;DHT22;59593;51.716;7.016;2022-10-31T15:38:49;17.10;99.90
71754;DHT22;59593;51.716;7.016;2022-10-31T15:41:49;17.10;99.90
71754;DHT22;59593;51.716;7.016;2022-10-31T15:44:35;17.10;99.90
71754;DHT22;59593;51.716;7.016;2022-10-31T15:47:04;17.10;99.90
71754;DHT22;59593;51.716;7.016;2022-10-31T15:49:39;17.10;99.90
71754;DHT22;59593;51.716;7.016;2022-10-31T15:52:11;17.00;99.90
71754;DHT22;59593;51.716;7.016;2022-10-31T15:54:46;17.00;99.90
71754;DHT22;59593;51.716;7.016;2022-10-31T15:57:12;17.00;99.90
71754;DHT22;59593;51.716;7.016;2022-10-31T15:59:40;17.00;99.90
71754;DHT22;59593;51.716;7.016;2022-10-31T16:02:11;16.90;99.90
71754;DHT22;59593;51.716;7.016;2022-10-31T16:04:36;16.90;99.90
71754;DHT22;59593;51.716;7.016;2022-10-31T16:07:14;16.80;99.90
71754;DHT22;59593;51.716;7.016;2022-10-31T16:12:20;16.80;99.90
71754;DHT22;59593;51.716;7.016;2022-10-31T16:14:46;16.70;99.90
71754;DHT22;59593;51.716;7.016;2022-10-31T16:17:14;16.60;99.90
71754;DHT22;59593;51.716;7.016;2022-10-31T16:19:59;16.50;99.90
71754;DHT22;59593;51.716;7.016;2022-10-31T16:22:36;16.40;99.90
71754;DHT22;59593;51.716;7.016;2022-10-31T16:25:12;16.40;99.90
71754;DHT22;59593;51.716;7.016;2022-10-31T16:27:39;16.30;99.90
71754;DHT22;59593;51.716;7.016;2022-10-31T16:32:58;16.20;99.90
71754;DHT22;59593;51.716;7.016;2022-10-31T16:35:35;16.20;99.90
71754;DHT22;59593;51.716;7.016;2022-10-31T16:38:01;16.20;99.90
71754;DHT22;59593;51.716;7.016;2022-10-31T16:40:27;16.10;99.90
71754;DHT22;59593;51.716;7.016;2022-10-31T16:42:53;16.20;99.90
71754;DHT22;59593;51.716;7.016;2022-10-31T16:45:21;16.10;99.90
71754;DHT22;59593;51.716;7.016;2022-10-31T16:47:47;16.00;99.90
71754;DHT22;59593;51.716;7.016;2022-10-31T16:50:26;16.10;99.90
71754;DHT22;59593;51.716;7.016;2022-10-31T16:52:52;16.10;99.90
71754;DHT22;59593;51.716;7.016;2022-10-31T16:55:19;16.10;99.90
71754;DHT22;59593;51.716;7.016;2022-10-31T16:57:49;16.10;99.90
71754;DHT22;59593;51.716;7.016;2022-10-31T17:00:21;16.10;99.90
71754;DHT22;59593;51.716;7.016;2022-10-31T17:02:48;16.10;99.90
71754;DHT22;59593;51.716;7.016;2022-10-31T17:05:17;16.10;99.90
71754;DHT22;59593;51.716;7.016;2022-10-31T17:07:43;16.00;99.90
71754;DHT22;59593;51.716;7.016;2022-10-31T17:10:11;16.10;99.90
71754;DHT22;59593;51.716;7.016;2022-10-31T17:12:39;16.00;99.90
71754;DHT22;59593;51.716;7.016;2022-10-31T17:15:10;16.00;99.90
71754;DHT22;59593;51.716;7.016;2022-10-31T17:17:39;16.00;99.90
71754;DHT22;59593;51.716;7.016;2022-10-31T17:20:31;16.00;99.90
71754;DHT22;59593;51.716;7.016;2022-10-31T17:22:58;15.90;99.90
71754;DHT22;59593;51.716;7.016;2022-10-31T17:25:26;15.90;99.90
71754;DHT22;59593;51.716;7.016;2022-10-31T17:27:52;15.80;99.90
71754;DHT22;59593;51.716;7.016;2022-10-31T17:30:18;15.80;99.90
71754;DHT22;59593;51.716;7.016;2022-10-31T17:32:45;15.90;99.90
71754;DHT22;59593;51.716;7.016;2022-10-31T17:35:12;15.90;99.90
71754;DHT22;59593;51.716;7.016;2022-10-31T17:37:39;15.80;99.90
71754;DHT22;59593;51.716;7.016;2022-10-31T17:40:08;15.80;99.90
71754;DHT22;59593;51.716;7.016;2022-10-31T17:42:34;15.80;99.90
71754;DHT22;59593;51.716;7.016;2022-10-31T17:45:00;15.80;99.90
71754;DHT22;59593;51.716;7.016;2022-10-31T17:47:26;15.80;99.90
71754;DHT22;59593;51.716;7.016;2022-10-31T17:49:51;15.90;99.90
71754;DHT22;59593;51.716;7.016;2022-10-31T17:52:18;15.90;99.90
71754;DHT22;59593;51.716;7.016;2022-10-31T17:54:44;15.90;99.90
71754;DHT22;59593;51.716;7.016;2022-10-31T17:57:15;16.00;99.90
71754;DHT22;59593;51.716;7.016;2022-10-31T17:59:41;16.00;99.90
71754;DHT22;59593;51.716;7.016;2022-10-31T18:02:10;16.00;99.90
71754;DHT22;59593;51.716;7.016;2022-10-31T18:04:37;16.00;99.90
71754;DHT22;59593;51.716;7.016;2022-10-31T18:07:03;16.10;99.90
71754;DHT22;59593;51.716;7.016;2022-10-31T18:09:29;16.00;99.90
71754;DHT22;59593;51.716;7.016;2022-10-31T18:11:54;16.10;99.90